createdAt,value
2017-10-07T00:00:25.445Z,1006.07
2017-10-07T00:01:25.462Z,1006.04
2017-10-07T00:02:25.481Z,1006.06
2017-10-07T00:03:25.508Z,1006.09
2017-10-07T00:04:25.524Z,1006.15
2017-10-07T00:05:25.536Z,1006.10
2017-10-07T00:06:25.555Z,1006.15
2017-10-07T00:07:25.578Z,1006.19
2017-10-07T00:08:25.595Z,1006.17
2017-10-07T00:09:25.609Z,1006.18
2017-10-07T00:10:25.629Z,1006.17
2017-10-07T00:11:25.650Z,1006.18
2017-10-07T00:12:25.669Z,1006.20
2017-10-07T00:13:25.686Z,1006.19
2017-10-07T00:14:25.707Z,1006.20
2017-10-07T00:15:25.722Z,1006.17
2017-10-07T00:16:25.743Z,1006.15
2017-10-07T00:17:25.761Z,1006.22
2017-10-07T00:18:25.777Z,1006.15
2017-10-07T00:19:25.800Z,1006.15
2017-10-07T00:20:25.817Z,1006.15
2017-10-07T00:21:25.832Z,1006.16
2017-10-07T00:22:25.859Z,1006.16
2017-10-07T00:23:25.872Z,1006.17
2017-10-07T00:24:25.893Z,1006.19
2017-10-07T00:25:25.909Z,1006.15
2017-10-07T00:26:25.929Z,1006.18
2017-10-07T00:27:25.945Z,1006.16
2017-10-07T00:28:25.966Z,1006.14
2017-10-07T00:29:25.984Z,1006.10
2017-10-07T00:30:26.003Z,1006.10
2017-10-07T00:31:26.022Z,1006.11
2017-10-07T00:32:26.042Z,1006.09
2017-10-07T00:33:26.059Z,1006.06
2017-10-07T00:34:26.079Z,1006.09
2017-10-07T00:35:26.097Z,1006.05
2017-10-07T00:36:26.114Z,1006.03
2017-10-07T00:37:26.133Z,1006.04
2017-10-07T00:38:26.152Z,1006.02
2017-10-07T00:39:26.170Z,1006.06
2017-10-07T00:40:26.189Z,1006.06
2017-10-07T00:41:26.207Z,1006.05
2017-10-07T00:42:26.223Z,1006.05
2017-10-07T00:43:26.245Z,1006.05
2017-10-07T00:44:26.267Z,1006.05
2017-10-07T00:45:26.282Z,1006.03
2017-10-07T00:46:26.299Z,1006.00
2017-10-07T00:47:26.319Z,1006.00
2017-10-07T00:48:26.336Z,1006.00
2017-10-07T00:49:26.355Z,1006.02
2017-10-07T00:50:26.374Z,1006.04
2017-10-07T00:51:26.391Z,1006.05
2017-10-07T00:52:26.412Z,1006.01
2017-10-07T00:53:26.431Z,1006.01
2017-10-07T00:54:26.447Z,1006.00
2017-10-07T00:55:26.469Z,1005.98
2017-10-07T00:56:26.484Z,1005.99
2017-10-07T00:57:26.502Z,1005.98
2017-10-07T00:58:26.522Z,1005.99
2017-10-07T00:59:26.542Z,1005.95
2017-10-07T01:00:26.568Z,1005.96
2017-10-07T01:01:26.579Z,1005.96
2017-10-07T01:02:26.599Z,1005.94
2017-10-07T01:03:26.617Z,1005.94
2017-10-07T01:04:26.634Z,1005.90
2017-10-07T01:05:26.651Z,1005.91
2017-10-07T01:06:26.672Z,1005.89
2017-10-07T01:07:26.689Z,1005.95
2017-10-07T01:08:26.711Z,1005.91
2017-10-07T01:09:26.732Z,1005.95
2017-10-07T01:10:26.751Z,1005.91
2017-10-07T01:11:26.764Z,1005.92
2017-10-07T01:12:26.784Z,1005.89
2017-10-07T01:13:26.801Z,1005.87
2017-10-07T01:14:26.822Z,1005.88
2017-10-07T01:15:26.839Z,1005.90
2017-10-07T01:16:26.858Z,1005.86
2017-10-07T01:17:26.876Z,1005.88
2017-10-07T01:18:26.894Z,1005.87
2017-10-07T01:19:26.914Z,1005.83
2017-10-07T01:20:26.934Z,1005.80
2017-10-07T01:21:26.951Z,1005.80
2017-10-07T01:22:26.973Z,1005.83
2017-10-07T01:23:26.990Z,1005.80
2017-10-07T01:24:27.008Z,1005.76
2017-10-07T01:25:27.025Z,1005.77
2017-10-07T01:26:27.044Z,1005.72
2017-10-07T01:27:27.064Z,1005.71
2017-10-07T01:28:27.082Z,1005.68
2017-10-07T01:29:27.101Z,1005.68
2017-10-07T01:30:27.118Z,1005.64
2017-10-07T01:31:27.138Z,1005.67
2017-10-07T01:32:27.156Z,1005.65
2017-10-07T01:33:27.176Z,1005.63
2017-10-07T01:34:27.194Z,1005.61
2017-10-07T01:35:27.216Z,1005.66
2017-10-07T01:36:27.240Z,1005.64
2017-10-07T01:37:27.248Z,1005.65
2017-10-07T01:38:27.268Z,1005.62
2017-10-07T01:39:27.289Z,1005.60
2017-10-07T01:40:27.308Z,1005.60
2017-10-07T01:41:27.323Z,1005.60
2017-10-07T01:42:27.342Z,1005.56
2017-10-07T01:43:27.361Z,1005.57
2017-10-07T01:44:27.380Z,1005.60
2017-10-07T01:45:27.399Z,1005.60
2017-10-07T01:46:27.421Z,1005.59
2017-10-07T01:47:27.438Z,1005.57
2017-10-07T01:48:27.454Z,1005.59
2017-10-07T01:49:27.473Z,1005.56
2017-10-07T01:50:27.493Z,1005.55
2017-10-07T01:51:27.511Z,1005.55
2017-10-07T01:52:27.528Z,1005.57
2017-10-07T01:53:27.547Z,1005.57
2017-10-07T01:54:27.566Z,1005.60
2017-10-07T01:55:27.585Z,1005.56
2017-10-07T01:56:27.603Z,1005.57
2017-10-07T01:57:27.622Z,1005.58
2017-10-07T01:58:27.643Z,1005.57
2017-10-07T01:59:27.661Z,1005.58
2017-10-07T02:00:27.678Z,1005.55
2017-10-07T02:01:27.706Z,1005.57
2017-10-07T02:02:27.713Z,1005.56
2017-10-07T02:03:27.734Z,1005.59
2017-10-07T02:04:27.753Z,1005.57
2017-10-07T02:05:27.820Z,1005.54
2017-10-07T02:06:27.846Z,1005.53
2017-10-07T02:07:27.873Z,1005.57
2017-10-07T02:08:27.842Z,1005.54
2017-10-07T02:09:27.908Z,1005.51
2017-10-07T02:10:27.900Z,1005.51
2017-10-07T02:11:27.883Z,1005.53
2017-10-07T02:12:27.902Z,1005.52
2017-10-07T02:13:27.925Z,1005.51
2017-10-07T02:14:27.941Z,1005.51
2017-10-07T02:15:28.006Z,1005.47
2017-10-07T02:16:28.021Z,1005.46
2017-10-07T02:17:28.024Z,1005.40
2017-10-07T02:18:28.054Z,1005.40
2017-10-07T02:19:28.040Z,1005.45
2017-10-07T02:20:28.052Z,1005.46
2017-10-07T02:21:28.116Z,1005.37
2017-10-07T02:22:28.133Z,1005.41
2017-10-07T02:23:28.105Z,1005.39
2017-10-07T02:24:28.138Z,1005.36
2017-10-07T02:25:28.143Z,1005.42
2017-10-07T02:26:28.165Z,1005.40
2017-10-07T02:27:28.182Z,1005.40
2017-10-07T02:28:28.208Z,1005.39
2017-10-07T02:29:28.217Z,1005.38
2017-10-07T02:30:28.248Z,1005.36
2017-10-07T02:31:28.268Z,1005.37
2017-10-07T02:32:28.274Z,1005.39
2017-10-07T02:33:28.299Z,1005.34
2017-10-07T02:34:28.312Z,1005.38
2017-10-07T02:35:28.347Z,1005.35
2017-10-07T02:36:28.349Z,1005.42
2017-10-07T02:37:28.370Z,1005.41
2017-10-07T02:38:28.397Z,1005.44
2017-10-07T02:39:28.404Z,1005.44
2017-10-07T02:40:28.424Z,1005.42
2017-10-07T02:41:28.485Z,1005.43
2017-10-07T02:42:28.470Z,1005.39
2017-10-07T02:43:28.481Z,1005.40
2017-10-07T02:44:28.499Z,1005.38
2017-10-07T02:45:28.519Z,1005.41
2017-10-07T02:46:28.555Z,1005.38
2017-10-07T02:47:28.555Z,1005.37
2017-10-07T02:48:28.575Z,1005.40
2017-10-07T02:49:28.590Z,1005.34
2017-10-07T02:50:28.612Z,1005.37
2017-10-07T02:51:28.628Z,1005.42
2017-10-07T02:52:28.649Z,1005.36
2017-10-07T02:53:28.666Z,1005.35
2017-10-07T02:54:28.685Z,1005.36
2017-10-07T02:55:28.709Z,1005.38
2017-10-07T02:56:28.722Z,1005.38
2017-10-07T02:57:28.809Z,1005.40
2017-10-07T02:58:28.787Z,1005.38
2017-10-07T02:59:28.797Z,1005.41
2017-10-07T03:00:28.795Z,1005.40
2017-10-07T03:01:28.815Z,1005.39
2017-10-07T03:02:28.835Z,1005.41
2017-10-07T03:03:28.853Z,1005.41
2017-10-07T03:04:28.881Z,1005.42
2017-10-07T03:05:28.889Z,1005.39
2017-10-07T03:06:28.905Z,1005.43
2017-10-07T03:07:28.928Z,1005.46
2017-10-07T03:08:28.945Z,1005.46
2017-10-07T03:09:28.963Z,1005.48
2017-10-07T03:10:28.981Z,1005.43
2017-10-07T03:11:28.998Z,1005.43
2017-10-07T03:12:29.016Z,1005.47
2017-10-07T03:13:29.038Z,1005.46
2017-10-07T03:14:29.052Z,1005.47
2017-10-07T03:15:29.074Z,1005.44
2017-10-07T03:16:29.093Z,1005.49
2017-10-07T03:17:29.108Z,1005.47
2017-10-07T03:18:29.126Z,1005.48
2017-10-07T03:19:29.148Z,1005.49
2017-10-07T03:20:29.170Z,1005.46
2017-10-07T03:21:29.183Z,1005.47
2017-10-07T03:22:29.202Z,1005.44
2017-10-07T03:23:29.217Z,1005.45
2017-10-07T03:24:29.240Z,1005.46
2017-10-07T03:25:29.254Z,1005.46
2017-10-07T03:26:29.271Z,1005.43
2017-10-07T03:27:29.291Z,1005.43
2017-10-07T03:28:29.310Z,1005.42
2017-10-07T03:29:29.330Z,1005.45
2017-10-07T03:30:29.347Z,1005.39
2017-10-07T03:31:29.367Z,1005.41
2017-10-07T03:32:29.384Z,1005.41
2017-10-07T03:33:29.404Z,1005.40
2017-10-07T03:34:29.420Z,1005.37
2017-10-07T03:35:29.436Z,1005.42
2017-10-07T03:36:29.459Z,1005.40
2017-10-07T03:37:29.477Z,1005.41
2017-10-07T03:38:29.495Z,1005.44
2017-10-07T03:39:29.513Z,1005.42
2017-10-07T03:40:29.531Z,1005.40
2017-10-07T03:41:29.547Z,1005.39
2017-10-07T03:42:29.568Z,1005.38
2017-10-07T03:43:29.586Z,1005.40
2017-10-07T03:44:29.603Z,1005.35
2017-10-07T03:45:29.620Z,1005.36
2017-10-07T03:46:29.644Z,1005.39
2017-10-07T03:47:29.659Z,1005.37
2017-10-07T03:48:29.675Z,1005.36
2017-10-07T03:49:29.693Z,1005.39
2017-10-07T03:50:29.715Z,1005.39
2017-10-07T03:51:29.735Z,1005.36
2017-10-07T03:52:29.749Z,1005.34
2017-10-07T03:53:29.783Z,1005.33
2017-10-07T03:54:29.788Z,1005.36
2017-10-07T03:55:29.805Z,1005.37
2017-10-07T03:56:29.853Z,1005.38
2017-10-07T03:57:29.842Z,1005.37
2017-10-07T03:58:29.860Z,1005.38
2017-10-07T03:59:29.878Z,1005.36
2017-10-07T04:00:29.897Z,1005.38
2017-10-07T04:01:29.914Z,1005.36
2017-10-07T04:02:29.933Z,1005.37
2017-10-07T04:03:29.949Z,1005.36
2017-10-07T04:04:29.968Z,1005.35
2017-10-07T04:05:29.988Z,1005.36
2017-10-07T04:06:30.007Z,1005.36
2017-10-07T04:07:30.024Z,1005.41
2017-10-07T04:08:30.043Z,1005.37
2017-10-07T04:09:30.059Z,1005.36
2017-10-07T04:10:30.080Z,1005.36
2017-10-07T04:11:30.098Z,1005.32
2017-10-07T04:12:30.118Z,1005.32
2017-10-07T04:13:30.135Z,1005.33
2017-10-07T04:14:30.153Z,1005.35
2017-10-07T04:15:30.168Z,1005.33
2017-10-07T04:16:30.190Z,1005.37
2017-10-07T04:17:30.205Z,1005.33
2017-10-07T04:18:30.224Z,1005.40
2017-10-07T04:19:30.246Z,1005.34
2017-10-07T04:20:30.262Z,1005.36
2017-10-07T04:21:30.293Z,1005.33
2017-10-07T04:22:30.297Z,1005.33
2017-10-07T04:23:30.316Z,1005.31
2017-10-07T04:24:30.336Z,1005.29
2017-10-07T04:25:30.354Z,1005.27
2017-10-07T04:26:30.373Z,1005.27
2017-10-07T04:27:30.390Z,1005.23
2017-10-07T04:28:30.409Z,1005.26
2017-10-07T04:29:30.425Z,1005.25
2017-10-07T04:30:30.447Z,1005.23
2017-10-07T04:31:30.466Z,1005.25
2017-10-07T04:32:30.489Z,1005.21
2017-10-07T04:33:30.498Z,1005.24
2017-10-07T04:34:30.517Z,1005.23
2017-10-07T04:35:30.535Z,1005.23
2017-10-07T04:36:30.555Z,1005.25
2017-10-07T04:37:30.591Z,1005.24
2017-10-07T04:38:30.592Z,1005.23
2017-10-07T04:39:30.609Z,1005.25
2017-10-07T04:40:30.632Z,1005.25
2017-10-07T04:41:30.648Z,1005.25
2017-10-07T04:42:30.668Z,1005.24
2017-10-07T04:43:30.687Z,1005.25
2017-10-07T04:44:30.701Z,1005.26
2017-10-07T04:45:30.724Z,1005.23
2017-10-07T04:46:30.746Z,1005.23
2017-10-07T04:47:30.757Z,1005.23
2017-10-07T04:48:30.777Z,1005.24
2017-10-07T04:49:30.796Z,1005.23
2017-10-07T04:50:30.812Z,1005.22
2017-10-07T04:51:30.834Z,1005.24
2017-10-07T04:52:30.848Z,1005.19
2017-10-07T04:53:30.890Z,1005.20
2017-10-07T04:54:30.889Z,1005.21
2017-10-07T04:55:30.902Z,1005.17
2017-10-07T04:56:30.922Z,1005.16
2017-10-07T04:57:30.941Z,1005.14
2017-10-07T04:58:30.957Z,1005.09
2017-10-07T04:59:30.975Z,1005.08
2017-10-07T05:00:30.993Z,1005.05
2017-10-07T05:01:31.014Z,1005.08
2017-10-07T05:02:31.030Z,1005.07
2017-10-07T05:03:31.055Z,1005.03
2017-10-07T05:04:31.066Z,1005.09
2017-10-07T05:05:31.086Z,1005.10
2017-10-07T05:06:31.103Z,1005.12
2017-10-07T05:07:31.124Z,1005.11
2017-10-07T05:08:31.166Z,1005.12
2017-10-07T05:09:31.158Z,1005.14
2017-10-07T05:10:31.177Z,1005.16
2017-10-07T05:11:31.201Z,1005.17
2017-10-07T05:12:31.218Z,1005.22
2017-10-07T05:13:31.242Z,1005.18
2017-10-07T05:14:31.250Z,1005.24
2017-10-07T05:15:31.268Z,1005.28
2017-10-07T05:16:31.287Z,1005.26
2017-10-07T05:17:31.329Z,1005.23
2017-10-07T05:18:31.333Z,1005.22
2017-10-07T05:19:31.388Z,1005.20
2017-10-07T05:20:31.554Z,1005.19
2017-10-07T05:21:31.383Z,1005.20
2017-10-07T05:22:31.396Z,1005.19
2017-10-07T05:23:31.416Z,1005.17
2017-10-07T05:24:31.432Z,1005.17
2017-10-07T05:25:31.452Z,1005.16
2017-10-07T05:26:31.477Z,1005.18
2017-10-07T05:27:31.493Z,1005.20
2017-10-07T05:28:31.518Z,1005.24
2017-10-07T05:29:31.525Z,1005.20
2017-10-07T05:30:31.552Z,1005.19
2017-10-07T05:31:31.594Z,1005.19
2017-10-07T05:32:31.585Z,1005.17
2017-10-07T05:33:31.597Z,1005.18
2017-10-07T05:34:31.617Z,1005.22
2017-10-07T05:35:31.636Z,1005.12
2017-10-07T05:36:31.655Z,1005.15
2017-10-07T05:37:31.676Z,1005.20
2017-10-07T05:38:31.702Z,1005.19
2017-10-07T05:39:31.709Z,1005.15
2017-10-07T05:40:31.728Z,1005.18
2017-10-07T05:41:31.747Z,1005.16
2017-10-07T05:42:31.766Z,1005.16
2017-10-07T05:43:31.783Z,1005.17
2017-10-07T05:44:31.801Z,1005.19
2017-10-07T05:45:31.820Z,1005.16
2017-10-07T05:46:31.837Z,1005.17
2017-10-07T05:47:31.858Z,1005.17
2017-10-07T05:48:31.883Z,1005.16
2017-10-07T05:49:31.891Z,1005.18
2017-10-07T05:50:31.910Z,1005.16
2017-10-07T05:51:31.932Z,1005.18
2017-10-07T05:52:31.946Z,1005.18
2017-10-07T05:53:31.966Z,1005.16
2017-10-07T05:54:31.984Z,1005.19
2017-10-07T05:55:32.001Z,1005.19
2017-10-07T05:56:32.020Z,1005.17
2017-10-07T05:57:32.038Z,1005.15
2017-10-07T05:58:32.058Z,1005.14
2017-10-07T05:59:32.075Z,1005.15
2017-10-07T06:00:32.098Z,1005.12
2017-10-07T06:01:32.114Z,1005.09
2017-10-07T06:02:32.131Z,1005.07
2017-10-07T06:03:32.149Z,1005.05
2017-10-07T06:04:32.167Z,1005.04
2017-10-07T06:05:32.189Z,1005.10
2017-10-07T06:06:32.205Z,1005.06
2017-10-07T06:07:32.222Z,1005.08
2017-10-07T06:08:32.239Z,1005.09
2017-10-07T06:09:32.259Z,1005.11
2017-10-07T06:10:32.277Z,1005.13
2017-10-07T06:11:32.296Z,1005.09
2017-10-07T06:12:32.313Z,1005.07
2017-10-07T06:13:32.330Z,1005.05
2017-10-07T06:14:32.353Z,1005.11
2017-10-07T06:15:32.369Z,1005.05
2017-10-07T06:16:32.388Z,1005.05
2017-10-07T06:17:32.406Z,1005.06
2017-10-07T06:18:32.426Z,1005.07
2017-10-07T06:19:32.443Z,1005.05
2017-10-07T06:20:32.461Z,1005.06
2017-10-07T06:21:32.478Z,1005.05
2017-10-07T06:22:32.499Z,1005.05
2017-10-07T06:23:32.513Z,1005.04
2017-10-07T06:24:32.533Z,1005.01
2017-10-07T06:25:32.553Z,1004.99
2017-10-07T06:26:32.571Z,1005.00
2017-10-07T06:27:32.593Z,1005.03
2017-10-07T06:28:32.613Z,1005.06
2017-10-07T06:29:32.626Z,1005.00
2017-10-07T06:30:32.645Z,1004.99
2017-10-07T06:31:32.669Z,1005.04
2017-10-07T06:32:32.682Z,1005.03
2017-10-07T06:33:32.701Z,1004.98
2017-10-07T06:34:32.719Z,1004.98
2017-10-07T06:35:32.740Z,1004.99
2017-10-07T06:36:32.761Z,1005.02
2017-10-07T06:37:32.778Z,1004.98
2017-10-07T06:38:32.794Z,1004.97
2017-10-07T06:39:32.810Z,1004.94
2017-10-07T06:40:32.830Z,1004.90
2017-10-07T06:41:32.850Z,1004.96
2017-10-07T06:42:32.867Z,1004.85
2017-10-07T06:43:32.884Z,1004.87
2017-10-07T06:44:32.905Z,1004.85
2017-10-07T06:45:32.926Z,1004.83
2017-10-07T06:46:32.940Z,1004.77
2017-10-07T06:47:32.959Z,1004.77
2017-10-07T06:48:32.980Z,1004.80
2017-10-07T06:49:32.994Z,1004.74
2017-10-07T06:50:33.013Z,1004.76
2017-10-07T06:51:33.031Z,1004.74
2017-10-07T06:52:33.051Z,1004.73
2017-10-07T06:53:33.071Z,1004.73
2017-10-07T06:54:33.095Z,1004.71
2017-10-07T06:55:33.106Z,1004.77
2017-10-07T06:56:33.125Z,1004.75
2017-10-07T06:57:33.146Z,1004.79
2017-10-07T06:58:33.161Z,1004.76
2017-10-07T06:59:33.178Z,1004.75
2017-10-07T07:00:33.198Z,1004.76
2017-10-07T07:01:33.220Z,1004.77
2017-10-07T07:02:33.238Z,1004.77
2017-10-07T07:03:33.254Z,1004.72
2017-10-07T07:04:33.274Z,1004.70
2017-10-07T07:05:33.292Z,1004.68
2017-10-07T07:06:33.311Z,1004.67
2017-10-07T07:07:33.327Z,1004.74
2017-10-07T07:08:33.347Z,1004.66
2017-10-07T07:09:33.366Z,1004.69
2017-10-07T07:10:33.384Z,1004.67
2017-10-07T07:11:33.409Z,1004.63
2017-10-07T07:12:33.420Z,1004.65
2017-10-07T07:13:33.438Z,1004.56
2017-10-07T07:14:33.460Z,1004.54
2017-10-07T07:15:33.477Z,1004.54
2017-10-07T07:16:33.498Z,1004.65
2017-10-07T07:17:33.515Z,1004.60
2017-10-07T07:18:33.533Z,1004.59
2017-10-07T07:19:33.551Z,1004.63
2017-10-07T07:20:33.573Z,1004.65
2017-10-07T07:21:33.586Z,1004.58
2017-10-07T07:22:33.614Z,1004.62
2017-10-07T07:23:33.634Z,1004.65
2017-10-07T07:24:33.646Z,1004.68
2017-10-07T07:25:33.666Z,1004.68
2017-10-07T07:26:33.685Z,1004.63
2017-10-07T07:27:33.703Z,1004.64
2017-10-07T07:28:33.722Z,1004.72
2017-10-07T07:29:33.740Z,1004.72
2017-10-07T07:30:33.763Z,1004.60
2017-10-07T07:31:33.779Z,1004.61
2017-10-07T07:32:33.938Z,1004.65
2017-10-07T07:33:33.815Z,1004.63
2017-10-07T07:34:33.837Z,1004.68
2017-10-07T07:35:33.852Z,1004.62
2017-10-07T07:36:33.877Z,1004.62
2017-10-07T07:37:33.891Z,1004.64
2017-10-07T07:38:33.911Z,1004.63
2017-10-07T07:39:33.930Z,1004.61
2017-10-07T07:40:33.948Z,1004.65
2017-10-07T07:41:33.966Z,1004.62
2017-10-07T07:42:33.985Z,1004.61
2017-10-07T07:43:34.004Z,1004.51
2017-10-07T07:44:34.021Z,1004.54
2017-10-07T07:45:34.044Z,1004.62
2017-10-07T07:46:34.062Z,1004.57
2017-10-07T07:47:34.081Z,1004.58
2017-10-07T07:48:34.104Z,1004.57
2017-10-07T07:49:34.119Z,1004.49
2017-10-07T07:50:34.136Z,1004.48
2017-10-07T07:51:34.165Z,1004.44
2017-10-07T07:52:34.175Z,1004.42
2017-10-07T07:53:34.198Z,1004.45
2017-10-07T07:54:34.214Z,1004.37
2017-10-07T07:55:34.237Z,1004.42
2017-10-07T07:56:34.253Z,1004.41
2017-10-07T07:57:34.270Z,1004.41
2017-10-07T07:58:34.289Z,1004.41
2017-10-07T07:59:34.306Z,1004.35
2017-10-07T08:00:34.328Z,1004.38
2017-10-07T08:01:34.348Z,1004.34
2017-10-07T08:02:34.366Z,1004.28
2017-10-07T08:03:34.385Z,1004.29
2017-10-07T08:04:34.405Z,1004.29
2017-10-07T08:05:34.423Z,1004.21
2017-10-07T08:06:34.441Z,1004.27
2017-10-07T08:07:34.461Z,1004.23
2017-10-07T08:08:34.480Z,1004.26
2017-10-07T08:09:34.495Z,1004.27
2017-10-07T08:10:34.519Z,1004.27
2017-10-07T08:11:34.535Z,1004.30
2017-10-07T08:12:34.555Z,1004.33
2017-10-07T08:13:34.572Z,1004.30
2017-10-07T08:14:34.592Z,1004.28
2017-10-07T08:15:34.609Z,1004.29
2017-10-07T08:16:34.628Z,1004.23
2017-10-07T08:17:34.649Z,1004.24
2017-10-07T08:18:34.667Z,1004.23
2017-10-07T08:19:34.688Z,1004.24
2017-10-07T08:20:34.705Z,1004.21
2017-10-07T08:21:34.722Z,1004.25
2017-10-07T08:22:34.743Z,1004.19
2017-10-07T08:23:34.761Z,1004.23
2017-10-07T08:24:34.781Z,1004.24
2017-10-07T08:25:34.800Z,1004.22
2017-10-07T08:26:34.817Z,1004.28
2017-10-07T08:27:34.841Z,1004.21
2017-10-07T08:28:34.855Z,1004.26
2017-10-07T08:29:34.877Z,1004.29
2017-10-07T08:30:34.898Z,1004.35
2017-10-07T08:31:34.914Z,1004.31
2017-10-07T08:32:34.933Z,1004.37
2017-10-07T08:33:34.949Z,1004.37
2017-10-07T08:34:34.973Z,1004.36
2017-10-07T08:35:34.996Z,1004.23
2017-10-07T08:36:35.010Z,1004.17
2017-10-07T08:37:35.028Z,1004.19
2017-10-07T08:38:35.049Z,1004.25
2017-10-07T08:39:35.070Z,1004.23
2017-10-07T08:40:35.086Z,1004.20
2017-10-07T08:41:35.105Z,1004.22
2017-10-07T08:42:35.126Z,1004.20
2017-10-07T08:43:35.147Z,1004.11
2017-10-07T08:44:35.167Z,1004.11
2017-10-07T08:45:35.183Z,1004.02
2017-10-07T08:46:35.206Z,1003.96
2017-10-07T08:47:35.226Z,1003.92
2017-10-07T08:48:35.245Z,1003.86
2017-10-07T08:49:35.265Z,1003.84
2017-10-07T08:50:35.285Z,1003.75
2017-10-07T08:51:35.304Z,1003.81
2017-10-07T08:52:35.323Z,1003.78
2017-10-07T08:53:35.343Z,1003.80
2017-10-07T08:54:35.362Z,1003.86
2017-10-07T08:55:35.383Z,1003.86
2017-10-07T08:56:35.403Z,1003.89
2017-10-07T08:57:35.423Z,1003.84
2017-10-07T08:58:35.443Z,1003.82
2017-10-07T08:59:35.465Z,1003.72
2017-10-07T09:00:35.484Z,1003.78
2017-10-07T09:01:35.500Z,1003.78
2017-10-07T09:02:35.521Z,1003.71
2017-10-07T09:03:35.539Z,1003.70
2017-10-07T09:04:35.563Z,1003.58
2017-10-07T09:05:35.582Z,1003.60
2017-10-07T09:06:35.602Z,1003.60
2017-10-07T09:07:35.622Z,1003.63
2017-10-07T09:08:35.640Z,1003.55
2017-10-07T09:09:35.659Z,1003.51
2017-10-07T09:10:35.678Z,1003.52
2017-10-07T09:11:35.700Z,1003.55
2017-10-07T09:12:35.718Z,1003.54
2017-10-07T09:13:35.737Z,1003.55
2017-10-07T09:14:35.758Z,1003.61
2017-10-07T09:15:35.778Z,1003.58
2017-10-07T09:16:35.797Z,1003.64
2017-10-07T09:17:35.816Z,1003.60
2017-10-07T09:18:35.835Z,1003.61
2017-10-07T09:19:35.857Z,1003.61
2017-10-07T09:20:35.875Z,1003.59
2017-10-07T09:21:35.898Z,1003.49
2017-10-07T09:22:35.914Z,1003.47
2017-10-07T09:23:35.934Z,1003.43
2017-10-07T09:24:35.956Z,1003.36
2017-10-07T09:25:35.975Z,1003.36
2017-10-07T09:26:35.997Z,1003.35
2017-10-07T09:27:36.013Z,1003.36
2017-10-07T09:28:36.044Z,1003.32
2017-10-07T09:29:36.052Z,1003.31
2017-10-07T09:30:36.075Z,1003.27
2017-10-07T09:31:36.119Z,1003.43
2017-10-07T09:32:36.114Z,1003.33
2017-10-07T09:33:36.135Z,1003.36
2017-10-07T09:34:36.153Z,1003.33
2017-10-07T09:35:36.180Z,1003.24
2017-10-07T09:36:36.200Z,1003.24
2017-10-07T09:37:36.210Z,1003.16
2017-10-07T09:38:36.236Z,1003.12
2017-10-07T09:39:36.251Z,1003.09
2017-10-07T09:40:36.272Z,1003.07
2017-10-07T09:41:36.292Z,1003.04
2017-10-07T09:42:36.315Z,1003.00
2017-10-07T09:43:36.339Z,1003.01
2017-10-07T09:44:36.355Z,1003.05
2017-10-07T09:45:36.370Z,1003.01
2017-10-07T09:46:36.394Z,1002.98
2017-10-07T09:47:36.413Z,1002.98
2017-10-07T09:48:36.430Z,1002.93
2017-10-07T09:49:36.449Z,1002.93
2017-10-07T09:50:36.473Z,1003.00
2017-10-07T09:51:36.490Z,1002.99
2017-10-07T09:52:36.518Z,1002.90
2017-10-07T09:53:36.528Z,1002.86
2017-10-07T09:54:36.550Z,1002.81
2017-10-07T09:55:36.571Z,1002.82
2017-10-07T09:56:36.599Z,1002.75
2017-10-07T09:57:36.618Z,1002.76
2017-10-07T09:58:36.628Z,1002.69
2017-10-07T09:59:36.650Z,1002.68
2017-10-07T10:00:36.678Z,1002.68
2017-10-07T10:01:36.690Z,1002.71
2017-10-07T10:02:36.714Z,1002.61
2017-10-07T10:03:36.725Z,1002.67
2017-10-07T10:04:36.753Z,1002.67
2017-10-07T10:05:36.765Z,1002.58
2017-10-07T10:06:36.805Z,1002.57
2017-10-07T10:07:36.807Z,1002.56
2017-10-07T10:08:36.825Z,1002.52
2017-10-07T10:09:36.843Z,1002.45
2017-10-07T10:10:36.863Z,1002.54
2017-10-07T10:11:36.885Z,1002.46
2017-10-07T10:12:36.903Z,1002.44
2017-10-07T10:13:36.929Z,1002.56
2017-10-07T10:14:36.943Z,1002.49
2017-10-07T10:15:36.965Z,1002.48
2017-10-07T10:16:36.987Z,1002.45
2017-10-07T10:17:37.004Z,1002.46
2017-10-07T10:18:37.020Z,1002.49
2017-10-07T10:19:37.047Z,1002.47
2017-10-07T10:20:37.066Z,1002.47
2017-10-07T10:21:37.083Z,1002.48
2017-10-07T10:22:37.107Z,1002.51
2017-10-07T10:23:37.123Z,1002.45
2017-10-07T10:24:37.144Z,1002.43
2017-10-07T10:25:37.163Z,1002.47
2017-10-07T10:26:37.181Z,1002.32
2017-10-07T10:27:37.201Z,1002.30
2017-10-07T10:28:37.221Z,1002.21
2017-10-07T10:29:37.240Z,1002.22
2017-10-07T10:30:37.262Z,1002.22
2017-10-07T10:31:37.282Z,1002.15
2017-10-07T10:32:37.295Z,1002.14
2017-10-07T10:33:37.321Z,1002.16
2017-10-07T10:34:37.339Z,1002.14
2017-10-07T10:35:37.361Z,1002.16
2017-10-07T10:36:37.398Z,1002.18
2017-10-07T10:37:37.408Z,1002.19
2017-10-07T10:38:37.417Z,1002.23
2017-10-07T10:39:37.439Z,1002.17
2017-10-07T10:40:37.458Z,1002.12
2017-10-07T10:41:37.476Z,1002.09
2017-10-07T10:42:37.497Z,1002.12
2017-10-07T10:43:37.522Z,1002.04
2017-10-07T10:44:37.543Z,1002.04
2017-10-07T10:45:37.555Z,1002.03
2017-10-07T10:46:37.585Z,1002.02
2017-10-07T10:47:37.601Z,1002.04
2017-10-07T10:48:37.620Z,1002.01
2017-10-07T10:49:37.643Z,1002.08
2017-10-07T10:50:37.659Z,1002.04
2017-10-07T10:51:37.676Z,1002.06
2017-10-07T10:52:37.696Z,1002.07
2017-10-07T10:53:37.720Z,1002.06
2017-10-07T10:54:37.736Z,1002.08
2017-10-07T10:55:37.763Z,1002.12
2017-10-07T10:56:37.775Z,1002.09
2017-10-07T10:57:37.795Z,1002.02
2017-10-07T10:58:37.820Z,1002.02
2017-10-07T10:59:37.834Z,1001.96
2017-10-07T11:00:37.861Z,1001.94
2017-10-07T11:01:37.875Z,1001.97
2017-10-07T11:02:37.894Z,1001.94
2017-10-07T11:03:37.919Z,1001.89
2017-10-07T11:04:37.943Z,1001.88
2017-10-07T11:05:37.953Z,1001.92
2017-10-07T11:06:37.973Z,1001.79
2017-10-07T11:07:37.990Z,1001.77
2017-10-07T11:08:38.015Z,1001.75
2017-10-07T11:09:38.033Z,1001.73
2017-10-07T11:10:38.049Z,1001.65
2017-10-07T11:11:38.073Z,1001.69
2017-10-07T11:12:38.089Z,1001.66
2017-10-07T11:37:56.589Z,1001.18
2017-10-07T11:38:56.576Z,1001.22
2017-10-07T11:39:56.581Z,1001.22
2017-10-07T11:40:56.596Z,1001.21
2017-10-07T11:41:56.752Z,1001.21
2017-10-07T11:42:56.632Z,1001.13
2017-10-07T11:43:56.651Z,1001.14
2017-10-07T11:44:56.672Z,1001.17
2017-10-07T11:45:56.691Z,1001.10
2017-10-07T11:46:56.705Z,1001.08
2017-10-07T11:47:56.727Z,1001.02
2017-10-07T11:48:56.735Z,1001.03
2017-10-07T11:49:56.755Z,1000.98
